createdAt,value
2023-04-10T00:00:11.571Z,13.65
2023-04-10T00:02:38.538Z,14.55
2023-04-10T00:05:05.795Z,12.15
2023-04-10T00:07:32.297Z,11.23
2023-04-10T00:09:58.652Z,14.18
2023-04-10T00:12:25.325Z,9.95
2023-04-10T00:14:51.665Z,12.70
2023-04-10T00:17:17.956Z,12.15
2023-04-10T00:19:44.262Z,10.45
2023-04-10T00:22:10.677Z,10.13
2023-04-10T00:24:36.976Z,10.75
2023-04-10T00:27:03.366Z,10.70
2023-04-10T00:29:29.764Z,13.52
2023-04-10T00:31:56.147Z,12.07
2023-04-10T00:34:22.534Z,11.93
2023-04-10T00:36:48.905Z,9.85
2023-04-10T00:39:15.503Z,11.90
2023-04-10T00:41:41.918Z,9.52
2023-04-10T00:44:08.721Z,10.10
2023-04-10T00:46:37.252Z,16.30
2023-04-10T00:49:04.218Z,9.73
2023-04-10T00:51:31.302Z,11.65
2023-04-10T00:53:59.256Z,10.35
2023-04-10T00:56:25.571Z,8.73
2023-04-10T00:58:51.889Z,9.73
2023-04-10T01:01:19.057Z,12.02
2023-04-10T01:03:45.702Z,11.82
2023-04-10T01:06:16.525Z,7.95
2023-04-10T01:08:42.786Z,8.38
2023-04-10T01:11:24.493Z,8.20
2023-04-10T01:13:57.852Z,10.13
2023-04-10T01:16:26.689Z,10.55
2023-04-10T01:18:57.253Z,9.85
2023-04-10T01:21:24.071Z,8.60
2023-04-10T01:23:59.525Z,12.77
2023-04-10T01:26:36.615Z,13.13
2023-04-10T01:29:09.842Z,8.57
2023-04-10T01:31:38.948Z,10.45
2023-04-10T01:34:07.991Z,8.50
2023-04-10T01:36:37.129Z,9.95
2023-04-10T01:39:03.990Z,8.20
2023-04-10T01:41:31.423Z,9.00
2023-04-10T01:43:58.059Z,9.02
2023-04-10T01:46:25.193Z,9.13
2023-04-10T01:48:53.000Z,9.45
2023-04-10T01:51:19.354Z,10.65
2023-04-10T01:53:46.132Z,8.90
2023-04-10T01:56:13.149Z,8.07
2023-04-10T01:58:39.443Z,8.52
2023-04-10T02:01:06.570Z,8.35
2023-04-10T02:03:33.123Z,16.42
2023-04-10T02:05:59.840Z,7.90
2023-04-10T02:08:29.876Z,9.48
2023-04-10T02:10:58.409Z,8.07
2023-04-10T02:13:26.617Z,10.88
2023-04-10T02:15:55.829Z,8.70
2023-04-10T02:18:22.654Z,8.93
2023-04-10T02:20:49.251Z,12.77
2023-04-10T02:23:16.807Z,8.48
2023-04-10T02:25:43.094Z,11.18
2023-04-10T02:28:09.480Z,8.98
2023-04-10T02:30:35.885Z,9.23
2023-04-10T02:33:02.300Z,10.30
2023-04-10T02:35:29.294Z,10.73
2023-04-10T02:37:55.663Z,10.95
2023-04-10T02:40:21.988Z,13.15
2023-04-10T02:42:48.306Z,10.05
2023-04-10T02:45:14.635Z,11.00
2023-04-10T02:47:41.024Z,7.43
2023-04-10T02:50:07.457Z,8.65
2023-04-10T02:52:33.770Z,8.88
2023-04-10T02:55:00.068Z,13.55
2023-04-10T02:57:27.227Z,9.18
2023-04-10T02:59:53.624Z,11.02
2023-04-10T03:02:20.350Z,9.90
2023-04-10T03:04:46.848Z,8.65
2023-04-10T03:07:13.205Z,11.93
2023-04-10T03:09:39.533Z,9.10
2023-04-10T03:12:05.937Z,7.97
2023-04-10T03:14:32.302Z,8.73
2023-04-10T03:16:58.579Z,9.02
2023-04-10T03:19:26.674Z,9.10
2023-04-10T03:21:53.558Z,7.80
2023-04-10T03:24:19.863Z,11.68
2023-04-10T03:26:46.673Z,8.98
2023-04-10T03:29:14.025Z,10.73
2023-04-10T03:31:40.346Z,7.47
2023-04-10T03:34:06.826Z,9.85
2023-04-10T03:36:33.145Z,8.45
2023-04-10T03:38:59.423Z,9.88
2023-04-10T03:41:25.854Z,9.25
2023-04-10T03:43:52.470Z,9.20
2023-04-10T03:46:19.028Z,8.95
2023-04-10T03:48:45.356Z,8.97
2023-04-10T03:51:11.666Z,7.95
2023-04-10T03:53:37.988Z,12.07
2023-04-10T03:56:04.481Z,11.25
2023-04-10T03:58:30.783Z,9.57
2023-04-10T04:00:57.414Z,8.55
2023-04-10T04:03:24.041Z,10.18
2023-04-10T04:05:50.926Z,10.82
2023-04-10T04:08:17.219Z,12.75
2023-04-10T04:10:43.524Z,9.68
2023-04-10T04:13:09.812Z,8.75
2023-04-10T04:15:36.148Z,10.57
2023-04-10T04:18:02.517Z,9.73
2023-04-10T04:20:28.838Z,8.17
2023-04-10T04:22:55.131Z,11.70
2023-04-10T04:25:21.477Z,8.25
2023-04-10T04:27:47.932Z,10.70
2023-04-10T04:30:14.236Z,10.45
2023-04-10T04:32:40.810Z,10.75
2023-04-10T04:35:07.351Z,8.70
2023-04-10T04:37:33.700Z,9.38
2023-04-10T04:40:00.191Z,10.23
2023-04-10T04:42:26.544Z,10.00
2023-04-10T04:44:52.854Z,14.47
2023-04-10T04:47:19.198Z,9.87
2023-04-10T04:49:45.596Z,12.60
2023-04-10T04:52:12.025Z,12.32
2023-04-10T04:54:38.319Z,11.80
2023-04-10T04:57:04.619Z,13.33
2023-04-10T04:59:30.952Z,10.50
2023-04-10T05:01:57.730Z,12.40
2023-04-10T05:04:24.233Z,10.10
2023-04-10T05:06:50.661Z,11.23
2023-04-10T05:09:16.961Z,6.80
2023-04-10T05:11:43.292Z,7.63
2023-04-10T05:14:09.568Z,9.87
2023-04-10T05:16:36.198Z,12.47
2023-04-10T05:19:02.548Z,11.60
2023-04-10T05:21:28.847Z,13.27
2023-04-10T05:23:55.481Z,14.63
2023-04-10T05:26:22.494Z,11.63
2023-04-10T05:28:48.789Z,11.68
2023-04-10T05:31:15.480Z,11.93
2023-04-10T05:33:41.849Z,12.00
2023-04-10T05:36:08.415Z,14.57
2023-04-10T05:38:34.807Z,12.73
2023-04-10T05:41:01.092Z,14.45
2023-04-10T05:43:27.390Z,11.45
2023-04-10T05:45:53.724Z,14.40
2023-04-10T05:48:20.145Z,11.10
2023-04-10T05:50:46.638Z,14.52
2023-04-10T05:53:13.943Z,12.20
2023-04-10T05:55:40.367Z,13.73
2023-04-10T05:58:06.720Z,15.52
2023-04-10T06:00:33.066Z,13.90
2023-04-10T06:02:59.463Z,13.65
2023-04-10T06:05:26.222Z,12.88
2023-04-10T06:07:52.642Z,12.52
2023-04-10T06:10:18.978Z,13.67
2023-04-10T06:12:45.332Z,10.48
2023-04-10T06:15:11.641Z,8.77
2023-04-10T06:17:44.276Z,12.80
2023-04-10T06:20:10.860Z,10.15
2023-04-10T06:22:37.314Z,14.57
2023-04-10T06:25:05.224Z,10.75
2023-04-10T06:27:31.554Z,14.40
2023-04-10T06:29:57.876Z,9.68
2023-04-10T06:32:24.228Z,16.17
2023-04-10T06:34:51.237Z,10.40
2023-04-10T06:37:17.587Z,9.53
2023-04-10T06:39:43.937Z,9.55
2023-04-10T06:42:10.395Z,10.25
2023-04-10T06:44:36.692Z,11.45
2023-04-10T06:47:03.077Z,9.88
2023-04-10T06:49:29.521Z,10.07
2023-04-10T06:51:56.051Z,10.07
2023-04-10T06:54:22.496Z,10.10
2023-04-10T06:56:48.901Z,9.07
2023-04-10T06:59:15.700Z,14.95
2023-04-10T07:01:42.077Z,15.98
2023-04-10T07:04:08.520Z,14.20
2023-04-10T07:06:34.920Z,14.93
2023-04-10T07:09:01.231Z,11.73
2023-04-10T07:11:27.560Z,11.07
2023-04-10T07:13:58.278Z,12.02
2023-04-10T07:16:25.181Z,9.80
2023-04-10T07:18:51.535Z,13.43
2023-04-10T07:21:17.864Z,13.88
2023-04-10T07:23:44.192Z,11.00
2023-04-10T07:26:10.500Z,10.98
2023-04-10T07:28:38.223Z,10.93
2023-04-10T07:31:04.652Z,23.35
2023-04-10T07:33:31.028Z,9.77
2023-04-10T07:35:57.513Z,9.43
2023-04-10T07:38:24.599Z,11.45
2023-04-10T07:40:55.823Z,11.05
2023-04-10T07:43:22.122Z,11.00
2023-04-10T07:45:48.427Z,7.90
2023-04-10T07:48:14.728Z,7.72
2023-04-10T07:50:41.270Z,8.10
2023-04-10T07:53:08.163Z,7.32
2023-04-10T07:55:37.990Z,9.13
2023-04-10T07:58:04.329Z,8.85
2023-04-10T08:00:30.708Z,9.20
2023-04-10T08:02:57.192Z,7.68
2023-04-10T08:05:23.928Z,9.73
2023-04-10T08:07:50.417Z,11.45
2023-04-10T08:10:16.723Z,8.85
2023-04-10T08:12:43.154Z,10.05
2023-04-10T08:15:09.670Z,7.20
2023-04-10T08:17:36.011Z,8.60
2023-04-10T08:20:02.430Z,8.55
2023-04-10T08:22:28.767Z,8.13
2023-04-10T08:24:55.091Z,8.27
2023-04-10T08:27:21.417Z,7.90
2023-04-10T08:29:47.740Z,9.10
2023-04-10T08:32:14.114Z,9.38
2023-04-10T08:34:40.413Z,8.82
2023-04-10T08:37:09.185Z,9.68
2023-04-10T08:39:36.830Z,9.85
2023-04-10T08:42:03.482Z,7.88
2023-04-10T08:44:30.125Z,8.30
2023-04-10T08:46:58.529Z,8.20
2023-04-10T08:49:28.657Z,7.85
2023-04-10T08:51:56.325Z,8.05
2023-04-10T08:54:42.872Z,10.10
2023-04-10T08:57:13.699Z,9.15
2023-04-10T08:59:40.251Z,8.48
2023-04-10T09:02:06.699Z,7.75
2023-04-10T09:04:33.553Z,8.93
2023-04-10T09:07:00.412Z,9.15
2023-04-10T09:09:27.348Z,10.38
2023-04-10T09:11:56.385Z,10.10
2023-04-10T09:14:23.843Z,10.45
2023-04-10T09:16:50.877Z,7.80
2023-04-10T09:19:29.388Z,8.20
2023-04-10T09:21:56.205Z,11.02
2023-04-10T09:24:25.969Z,9.10
2023-04-10T09:26:52.634Z,9.27
2023-04-10T09:29:19.024Z,10.15
2023-04-10T09:31:45.430Z,8.45
2023-04-10T09:34:18.720Z,10.25
2023-04-10T09:36:52.805Z,9.90
2023-04-10T09:39:19.100Z,8.93
2023-04-10T09:41:48.687Z,8.98
2023-04-10T09:44:16.880Z,10.43
2023-04-10T09:46:43.246Z,9.27
2023-04-10T09:49:09.603Z,10.60
2023-04-10T09:51:36.150Z,9.65
2023-04-10T09:54:05.463Z,15.20
2023-04-10T09:56:34.234Z,10.18
2023-04-10T09:59:01.317Z,8.15
2023-04-10T10:01:34.508Z,8.45
2023-04-10T10:04:04.326Z,8.65
2023-04-10T10:06:32.045Z,10.50
2023-04-10T10:09:01.631Z,10.65
2023-04-10T10:11:28.759Z,9.63
2023-04-10T10:13:56.943Z,9.88
2023-04-10T10:16:23.328Z,8.45
2023-04-10T10:19:07.370Z,7.72
2023-04-10T10:21:34.324Z,7.30
2023-04-10T10:24:01.590Z,13.20
2023-04-10T10:26:29.151Z,8.27
2023-04-10T10:28:56.603Z,7.40
2023-04-10T10:31:24.838Z,7.85
2023-04-10T10:33:54.477Z,7.63
2023-04-10T10:36:22.315Z,7.30
2023-04-10T10:38:56.416Z,6.82
2023-04-10T10:41:34.849Z,8.07
2023-04-10T10:44:22.113Z,9.50
2023-04-10T10:46:53.231Z,7.90
2023-04-10T10:49:19.733Z,8.45
2023-04-10T10:51:50.122Z,10.70
2023-04-10T10:54:29.688Z,9.18
2023-04-10T10:56:56.069Z,9.18
2023-04-10T10:59:41.436Z,8.40
2023-04-10T11:02:13.077Z,8.82
2023-04-10T11:04:43.649Z,6.03
2023-04-10T11:07:10.141Z,8.70
2023-04-10T11:09:57.103Z,9.43
2023-04-10T11:12:24.614Z,8.38
2023-04-10T11:14:58.556Z,6.88
2023-04-10T11:17:43.746Z,9.73
2023-04-10T11:20:10.027Z,9.23
2023-04-10T11:22:56.276Z,8.50
2023-04-10T11:25:22.913Z,7.95
2023-04-10T11:27:49.612Z,6.90
2023-04-10T11:30:26.507Z,10.55
2023-04-10T11:32:53.481Z,13.48
2023-04-10T11:35:20.141Z,9.70
2023-04-10T11:37:46.672Z,6.40
2023-04-10T11:40:13.297Z,5.13
2023-04-10T11:42:39.923Z,6.80
2023-04-10T11:45:25.538Z,6.25
2023-04-10T11:50:18.630Z,6.18
2023-04-10T11:52:44.946Z,7.47
2023-04-10T11:55:12.021Z,10.95
2023-04-10T11:57:38.328Z,10.40
2023-04-10T12:00:04.965Z,6.78
2023-04-10T12:02:31.622Z,7.65
2023-04-10T12:04:58.889Z,36.78
2023-04-10T12:07:29.832Z,6.57
2023-04-10T12:09:58.049Z,8.48
2023-04-10T12:12:37.150Z,7.45
2023-04-10T12:15:04.261Z,9.65
2023-04-10T12:17:30.898Z,11.30
2023-04-10T12:19:57.607Z,16.73
2023-04-10T12:22:24.003Z,16.25
2023-04-10T12:24:51.768Z,4.70
2023-04-10T12:27:18.910Z,4.53
2023-04-10T12:29:46.420Z,6.80
2023-04-10T12:32:13.034Z,8.43
2023-04-10T12:34:39.497Z,10.55
2023-04-10T12:37:06.316Z,7.25
2023-04-10T12:39:32.705Z,6.80
2023-04-10T12:42:15.739Z,8.45
2023-04-10T12:44:52.117Z,8.88
2023-04-10T12:47:18.655Z,8.30
2023-04-10T12:50:04.483Z,7.32
2023-04-10T12:52:31.206Z,6.78
2023-04-10T12:55:11.437Z,9.10
2023-04-10T12:57:38.172Z,6.75
2023-04-10T13:00:05.484Z,7.97
2023-04-10T13:02:31.935Z,8.75
2023-04-10T13:04:59.355Z,7.78
2023-04-10T13:07:25.650Z,9.23
2023-04-10T13:09:51.952Z,7.50
2023-04-10T13:12:18.255Z,7.25
2023-04-10T13:14:44.550Z,8.50
2023-04-10T13:17:10.848Z,11.05
2023-04-10T13:19:37.160Z,9.45
2023-04-10T13:22:04.823Z,9.55
2023-04-10T13:24:31.603Z,8.18
2023-04-10T13:27:01.389Z,8.05
2023-04-10T13:29:28.851Z,7.95
2023-04-10T13:31:55.381Z,10.25
2023-04-10T13:34:21.704Z,10.73
2023-04-10T13:36:48.740Z,10.30
2023-04-10T13:39:15.583Z,11.57
2023-04-10T13:41:41.894Z,6.10
2023-04-10T13:44:08.206Z,10.25
2023-04-10T13:46:34.546Z,17.30
2023-04-10T13:49:00.993Z,18.42
2023-04-10T13:51:27.845Z,12.70
2023-04-10T13:53:54.181Z,17.02
2023-04-10T13:56:20.644Z,21.98
2023-04-10T13:58:47.162Z,18.27
2023-04-10T14:01:13.587Z,10.55
2023-04-10T14:03:40.045Z,14.73
2023-04-10T14:06:06.692Z,17.23
2023-04-10T14:08:33.072Z,28.85
2023-04-10T14:10:59.392Z,28.60
2023-04-10T14:13:26.179Z,9.95
2023-04-10T14:15:53.637Z,29.40
2023-04-10T14:18:21.154Z,47.55
2023-04-10T14:20:47.709Z,48.58
2023-04-10T14:23:18.181Z,58.08
2023-04-10T14:25:45.503Z,63.90
2023-04-10T14:28:18.061Z,67.78
2023-04-10T14:30:53.410Z,66.60
2023-04-10T14:33:20.246Z,13.00
2023-04-10T14:35:46.764Z,79.13
2023-04-10T14:38:13.236Z,75.03
2023-04-10T14:40:40.690Z,80.38
2023-04-10T14:43:07.181Z,82.55
2023-04-10T14:45:33.848Z,68.28
2023-04-10T14:48:00.392Z,66.07
2023-04-10T14:50:26.794Z,75.82
2023-04-10T14:52:53.098Z,90.88
2023-04-10T14:55:19.492Z,89.28
2023-04-10T14:57:45.866Z,81.47
2023-04-10T15:00:12.321Z,61.20
2023-04-10T15:02:38.884Z,64.90
2023-04-10T15:05:05.404Z,93.93
2023-04-10T15:07:31.719Z,84.80
2023-04-10T15:09:58.365Z,116.70
2023-04-10T15:12:25.033Z,135.98
2023-04-10T15:14:51.695Z,136.95
2023-04-10T15:17:20.927Z,143.32
2023-04-10T15:19:47.276Z,125.07
2023-04-10T15:22:13.708Z,124.20
2023-04-10T15:24:49.338Z,125.82
2023-04-10T15:27:18.710Z,111.88
2023-04-10T15:29:45.025Z,125.80
2023-04-10T15:32:11.321Z,134.93
2023-04-10T15:34:37.783Z,141.07
2023-04-10T15:37:04.086Z,133.98
2023-04-10T15:39:33.425Z,152.55
2023-04-10T15:42:00.390Z,157.75
2023-04-10T15:44:26.793Z,163.88
2023-04-10T15:46:53.144Z,143.85
2023-04-10T15:49:29.939Z,143.68
2023-04-10T15:52:00.696Z,85.30
2023-04-10T15:54:27.030Z,95.70
2023-04-10T15:56:53.352Z,11.90
2023-04-10T15:59:19.803Z,15.05
2023-04-10T16:01:46.151Z,12.13
2023-04-10T16:04:12.710Z,9.55
2023-04-10T16:06:39.021Z,14.90
2023-04-10T16:09:15.285Z,16.25
2023-04-10T16:11:51.049Z,15.23
2023-04-10T16:14:18.947Z,18.45
2023-04-10T16:16:45.496Z,15.88
2023-04-10T16:19:11.815Z,20.60
2023-04-10T16:21:38.111Z,13.32
2023-04-10T16:24:04.520Z,15.38
2023-04-10T16:26:30.898Z,9.68
2023-04-10T16:28:57.377Z,33.10
2023-04-10T16:31:23.831Z,27.27
2023-04-10T16:33:50.169Z,22.42
2023-04-10T16:36:16.462Z,19.42
2023-04-10T16:38:43.609Z,22.25
2023-04-10T16:41:10.269Z,36.72
2023-04-10T16:43:36.570Z,20.33
2023-04-10T16:46:02.897Z,48.53
2023-04-10T16:48:29.206Z,26.80
2023-04-10T16:50:55.578Z,49.55
2023-04-10T16:53:21.892Z,49.47
2023-04-10T16:55:56.247Z,58.92
2023-04-10T16:58:22.890Z,62.57
2023-04-10T17:00:49.253Z,74.20
2023-04-10T17:03:15.665Z,43.70
2023-04-10T17:05:42.080Z,72.55
2023-04-10T17:08:08.398Z,53.67
2023-04-10T17:10:34.714Z,55.67
2023-04-10T17:13:01.053Z,65.80
2023-04-10T17:15:27.353Z,98.13
2023-04-10T17:17:54.141Z,70.38
2023-04-10T17:20:20.780Z,104.65
2023-04-10T17:22:47.090Z,24.95
2023-04-10T17:25:13.455Z,83.47
2023-04-10T17:27:40.736Z,56.80
2023-04-10T17:30:10.805Z,20.20
2023-04-10T17:32:37.132Z,71.00
2023-04-10T17:35:03.563Z,80.65
2023-04-10T17:37:29.861Z,101.82
2023-04-10T17:39:56.274Z,95.07
2023-04-10T17:42:23.316Z,80.10
2023-04-10T17:44:49.657Z,82.03
2023-04-10T17:47:17.252Z,94.25
2023-04-10T17:49:43.604Z,82.15
2023-04-10T17:52:09.919Z,96.82
2023-04-10T17:54:36.210Z,76.28
2023-04-10T17:57:02.678Z,88.68
2023-04-10T17:59:32.242Z,91.53
2023-04-10T18:01:58.663Z,76.15
2023-04-10T18:04:25.274Z,83.55
2023-04-10T18:06:51.584Z,112.72
2023-04-10T18:09:17.871Z,88.65
2023-04-10T18:11:44.226Z,219.20
2023-04-10T18:14:10.550Z,367.48
2023-04-10T18:16:36.919Z,316.83
2023-04-10T18:19:03.263Z,325.80
2023-04-10T18:21:29.642Z,306.08
2023-04-10T18:23:55.986Z,84.78
2023-04-10T18:26:22.413Z,314.25
2023-04-10T18:28:48.868Z,319.30
2023-04-10T18:31:16.670Z,147.00
2023-04-10T18:33:43.420Z,136.07
2023-04-10T18:36:10.956Z,149.82
2023-04-10T18:38:37.842Z,143.23
2023-04-10T18:41:04.338Z,148.70
2023-04-10T18:43:30.801Z,121.15
2023-04-10T18:45:57.313Z,135.02
2023-04-10T18:48:23.752Z,173.43
2023-04-10T18:50:54.266Z,150.88
2023-04-10T18:53:20.963Z,137.10
2023-04-10T18:55:54.242Z,147.77
2023-04-10T18:58:21.345Z,96.78
2023-04-10T19:00:48.000Z,137.80
2023-04-10T19:03:15.983Z,145.35
2023-04-10T19:05:43.620Z,113.50
2023-04-10T19:08:14.257Z,120.50
2023-04-10T19:10:42.134Z,124.68
2023-04-10T19:13:09.361Z,123.93
2023-04-10T19:15:39.655Z,99.53
2023-04-10T19:18:06.241Z,98.05
2023-04-10T19:20:51.208Z,130.05
2023-04-10T19:23:19.003Z,98.00
2023-04-10T19:25:45.430Z,112.78
2023-04-10T19:28:11.862Z,99.45
2023-04-10T19:30:38.358Z,64.82
2023-04-10T19:33:04.798Z,50.28
2023-04-10T19:35:31.418Z,67.95
2023-04-10T19:37:58.049Z,63.75
2023-04-10T19:40:24.536Z,74.88
2023-04-10T19:42:51.086Z,54.88
2023-04-10T19:45:17.509Z,69.28
2023-04-10T19:47:43.924Z,63.95
2023-04-10T19:50:10.432Z,59.85
2023-04-10T19:52:38.070Z,74.18
2023-04-10T19:55:04.728Z,62.47
2023-04-10T19:57:31.077Z,77.75
2023-04-10T19:59:57.596Z,43.42
2023-04-10T20:02:24.167Z,68.22
2023-04-10T20:04:50.924Z,66.57
2023-04-10T20:07:17.390Z,72.78
2023-04-10T20:09:43.779Z,63.45
2023-04-10T20:12:10.169Z,73.13
2023-04-10T20:14:36.539Z,66.95
2023-04-10T20:17:02.979Z,65.72
2023-04-10T20:19:29.596Z,70.68
2023-04-10T20:21:56.013Z,72.05
2023-04-10T20:24:22.313Z,55.92
2023-04-10T20:26:48.720Z,67.38
2023-04-10T20:29:15.080Z,75.25
2023-04-10T20:31:41.517Z,63.33
2023-04-10T20:34:07.943Z,60.33
2023-04-10T20:36:34.714Z,63.60
2023-04-10T20:39:01.090Z,64.97
2023-04-10T20:41:27.901Z,69.03
2023-04-10T20:43:55.857Z,57.30
2023-04-10T20:46:22.412Z,46.22
2023-04-10T20:48:48.991Z,59.15
2023-04-10T20:51:15.529Z,46.47
2023-04-10T20:53:41.834Z,16.45
2023-04-10T20:56:08.437Z,33.47
2023-04-10T20:58:34.750Z,29.55
2023-04-10T21:01:01.081Z,50.63
2023-04-10T21:03:27.705Z,28.38
2023-04-10T21:05:54.296Z,47.55
2023-04-10T21:08:20.688Z,30.88
2023-04-10T21:10:47.224Z,29.50
2023-04-10T21:13:14.239Z,52.88
2023-04-10T21:15:43.671Z,55.30
2023-04-10T21:18:10.212Z,39.50
2023-04-10T21:20:36.578Z,45.40
2023-04-10T21:23:03.041Z,47.83
2023-04-10T21:25:30.872Z,32.33
2023-04-10T21:27:57.245Z,47.92
2023-04-10T21:30:23.633Z,39.28
2023-04-10T21:32:50.120Z,37.95
2023-04-10T21:35:16.455Z,40.15
2023-04-10T21:37:42.753Z,39.17
2023-04-10T21:40:09.285Z,51.35
2023-04-10T21:42:38.662Z,38.20
2023-04-10T21:45:05.844Z,31.52
2023-04-10T21:47:32.144Z,44.30
2023-04-10T21:49:58.730Z,24.65
2023-04-10T21:52:25.201Z,34.80
2023-04-10T21:54:52.068Z,37.05
2023-04-10T21:57:18.377Z,35.13
2023-04-10T21:59:44.756Z,34.80
2023-04-10T22:02:11.233Z,41.20
2023-04-10T22:04:41.612Z,25.38
2023-04-10T22:07:18.161Z,31.27
2023-04-10T22:09:44.622Z,20.70
2023-04-10T22:12:11.035Z,32.80
2023-04-10T22:14:37.770Z,34.83
2023-04-10T22:17:04.102Z,28.08
2023-04-10T22:19:30.506Z,27.95
2023-04-10T22:21:56.949Z,33.20
2023-04-10T22:24:23.320Z,42.88
2023-04-10T22:26:49.761Z,35.83
2023-04-10T22:29:16.248Z,39.35
2023-04-10T22:31:42.996Z,32.40
2023-04-10T22:34:09.646Z,32.83
2023-04-10T22:36:36.174Z,34.10
2023-04-10T22:39:02.936Z,26.08
2023-04-10T22:41:29.667Z,26.75
2023-04-10T22:43:56.160Z,20.50
2023-04-10T22:46:22.883Z,28.05
2023-04-10T22:48:49.252Z,32.50
2023-04-10T22:51:15.619Z,26.05
2023-04-10T22:53:41.914Z,37.63
2023-04-10T22:56:08.783Z,25.77
2023-04-10T22:58:36.083Z,33.05
2023-04-10T23:01:02.407Z,31.77
2023-04-10T23:03:28.731Z,31.90
2023-04-10T23:05:55.220Z,33.63
2023-04-10T23:08:21.524Z,17.48
2023-04-10T23:10:47.828Z,65.43
2023-04-10T23:13:14.128Z,38.35
2023-04-10T23:15:40.479Z,34.97
2023-04-10T23:18:07.300Z,42.90
2023-04-10T23:20:33.621Z,24.63
2023-04-10T23:22:59.968Z,30.50
2023-04-10T23:25:26.266Z,34.50
2023-04-10T23:27:52.593Z,16.48
2023-04-10T23:30:18.920Z,31.85
2023-04-10T23:32:45.252Z,27.73
2023-04-10T23:35:11.598Z,25.85
2023-04-10T23:37:37.897Z,23.92
2023-04-10T23:40:04.386Z,17.50
2023-04-10T23:42:31.219Z,18.83
2023-04-10T23:44:57.622Z,24.38
2023-04-10T23:47:24.068Z,19.20
2023-04-10T23:49:50.547Z,25.63
2023-04-10T23:52:16.848Z,28.90
2023-04-10T23:54:43.718Z,21.58
2023-04-10T23:57:10.074Z,24.60
2023-04-10T23:59:36.458Z,28.48
